sensor_id;sensor_type;location;lat;lon;timestamp;pressure;altitude;pressure_sealevel;temperature;humidity
36834;BME280;48003;52.084;5.224;2023-02-18T00:01:01;102260.0;;;12.32;88.17
36834;BME280;48003;52.084;5.224;2023-02-18T00:04:14;102259.0;;;12.51;87.47
36834;BME280;48003;52.084;5.224;2023-02-18T00:05:51;102259.0;;;12.34;88.02
36834;BME280;48003;52.084;5.224;2023-02-18T00:07:28;102258.0;;;12.15;89.43
36834;BME280;48003;52.084;5.224;2023-02-18T00:09:09;102256.0;;;12.57;87.28
36834;BME280;48003;52.084;5.224;2023-02-18T00:12:23;102258.0;;;12.18;89.41
36834;BME280;48003;52.084;5.224;2023-02-18T00:14:01;102263.0;;;11.9;91.14
36834;BME280;48003;52.084;5.224;2023-02-18T00:15:39;102257.0;;;12.01;90.47
36834;BME280;48003;52.084;5.224;2023-02-18T00:18:54;102255.0;;;12.11;89.81
36834;BME280;48003;52.084;5.224;2023-02-18T00:20:32;102251.0;;;12.53;87.94
36834;BME280;48003;52.084;5.224;2023-02-18T00:22:09;102246.0;;;12.27;89.35
36834;BME280;48003;52.084;5.224;2023-02-18T00:25:22;102249.0;;;11.94;90.33
36834;BME280;48003;52.084;5.224;2023-02-18T00:26:58;102250.0;;;12.01;90.79
36834;BME280;48003;52.084;5.224;2023-02-18T00:28:35;102244.0;;;12.24;89.65
36834;BME280;48003;52.084;5.224;2023-02-18T00:30:12;102248.0;;;12.15;89.59
36834;BME280;48003;52.084;5.224;2023-02-18T00:33:25;102244.0;;;12.3;89.54
36834;BME280;48003;52.084;5.224;2023-02-18T00:35:02;102238.0;;;12.24;89.35
36834;BME280;48003;52.084;5.224;2023-02-18T00:36:39;102231.0;;;12.41;88.88
36834;BME280;48003;52.084;5.224;2023-02-18T00:39:52;102230.0;;;12.19;89.19
36834;BME280;48003;52.084;5.224;2023-02-18T00:41:30;102236.0;;;12.23;89.23
36834;BME280;48003;52.084;5.224;2023-02-18T00:43:07;102238.0;;;12.38;88.4
36834;BME280;48003;52.084;5.224;2023-02-18T00:44:43;102233.0;;;12.11;89.1
36834;BME280;48003;52.084;5.224;2023-02-18T00:47:57;102233.0;;;11.83;91.14
36834;BME280;48003;52.084;5.224;2023-02-18T00:49:33;102227.0;;;12.17;89.31
36834;BME280;48003;52.084;5.224;2023-02-18T00:51:11;102228.0;;;12.07;89.81
36834;BME280;48003;52.084;5.224;2023-02-18T00:54:23;102223.0;;;12.2;89.43
36834;BME280;48003;52.084;5.224;2023-02-18T00:55:59;102228.0;;;12.19;89.58
36834;BME280;48003;52.084;5.224;2023-02-18T00:57:37;102225.0;;;12.1;89.7
36834;BME280;48003;52.084;5.224;2023-02-18T01:00:49;102223.0;;;11.77;91.15
36834;BME280;48003;52.084;5.224;2023-02-18T01:02:26;102221.0;;;11.88;90.6
36834;BME280;48003;52.084;5.224;2023-02-18T01:04:03;102218.0;;;12.06;89.94
36834;BME280;48003;52.084;5.224;2023-02-18T01:05:41;102217.0;;;12.21;89.32
36834;BME280;48003;52.084;5.224;2023-02-18T01:08:54;102216.0;;;11.75;91.45
36834;BME280;48003;52.084;5.224;2023-02-18T01:10:31;102217.0;;;12.16;89.21
36834;BME280;48003;52.084;5.224;2023-02-18T01:12:08;102218.0;;;12.14;89.16
36834;BME280;48003;52.084;5.224;2023-02-18T01:15:22;102224.0;;;11.76;91.03
36834;BME280;48003;52.084;5.224;2023-02-18T01:16:59;102219.0;;;11.91;90.87
36834;BME280;48003;52.084;5.224;2023-02-18T01:18:36;102218.0;;;11.75;90.92
36834;BME280;48003;52.084;5.224;2023-02-18T01:21:50;102225.0;;;11.67;91.57
36834;BME280;48003;52.084;5.224;2023-02-18T01:23:27;102224.0;;;11.93;90.36
36834;BME280;48003;52.084;5.224;2023-02-18T01:25:05;102217.0;;;11.94;90.5
36834;BME280;48003;52.084;5.224;2023-02-18T01:26:41;102226.0;;;11.81;90.22
36834;BME280;48003;52.084;5.224;2023-02-18T01:29:54;102232.0;;;11.4;93.11
36834;BME280;48003;52.084;5.224;2023-02-18T01:31:30;102221.0;;;11.69;91.8
36834;BME280;48003;52.084;5.224;2023-02-18T01:33:07;102209.0;;;11.62;92.49
36834;BME280;48003;52.084;5.224;2023-02-18T01:36:20;102194.0;;;11.44;92.82
36834;BME280;48003;52.084;5.224;2023-02-18T01:37:56;102193.0;;;11.67;92.14
36834;BME280;48003;52.084;5.224;2023-02-18T01:39:32;102197.0;;;11.83;91.11
36834;BME280;48003;52.084;5.224;2023-02-18T01:42:46;102186.0;;;11.72;92.31
36834;BME280;48003;52.084;5.224;2023-02-18T01:44:25;102183.0;;;11.56;92.84
36834;BME280;48003;52.084;5.224;2023-02-18T01:46:07;102187.0;;;11.81;91.39
36834;BME280;48003;52.084;5.224;2023-02-18T01:47:50;102183.0;;;11.49;92.96
36834;BME280;48003;52.084;5.224;2023-02-18T01:51:11;102187.0;;;11.47;93.47
36834;BME280;48003;52.084;5.224;2023-02-18T01:52:49;102188.0;;;11.38;93.58
36834;BME280;48003;52.084;5.224;2023-02-18T01:54:28;102185.0;;;11.44;93.8
36834;BME280;48003;52.084;5.224;2023-02-18T01:56:10;102180.0;;;11.42;94.75
36834;BME280;48003;52.084;5.224;2023-02-18T01:59:30;102181.0;;;11.36;95.02
36834;BME280;48003;52.084;5.224;2023-02-18T02:01:08;102180.0;;;11.31;95.65
36834;BME280;48003;52.084;5.224;2023-02-18T02:02:45;102173.0;;;11.39;94.58
36834;BME280;48003;52.084;5.224;2023-02-18T02:04:22;102176.0;;;11.29;95.33
36834;BME280;48003;52.084;5.224;2023-02-18T02:07:37;102168.0;;;11.52;94.9
36834;BME280;48003;52.084;5.224;2023-02-18T02:09:18;102160.0;;;11.66;94.34
36834;BME280;48003;52.084;5.224;2023-02-18T02:11:06;102160.0;;;11.31;95.4
36834;BME280;48003;52.084;5.224;2023-02-18T02:13:00;102157.0;;;11.71;94.09
36834;BME280;48003;52.084;5.224;2023-02-18T02:14:52;102151.0;;;11.69;94.34
36834;BME280;48003;52.084;5.224;2023-02-18T02:17:03;102153.0;;;11.49;95.57
36834;BME280;48003;52.084;5.224;2023-02-18T02:20:47;102160.0;;;11.67;94.6
36834;BME280;48003;52.084;5.224;2023-02-18T02:24:55;102132.0;;;11.5;95.55
36834;BME280;48003;52.084;5.224;2023-02-18T02:27:22;102110.0;;;11.5;95.91
36834;BME280;48003;52.084;5.224;2023-02-18T02:31:26;102111.0;;;11.58;94.73
36834;BME280;48003;52.084;5.224;2023-02-18T02:35:25;102105.0;;;11.8;95.0
36834;BME280;48003;52.084;5.224;2023-02-18T02:37:11;102094.0;;;11.73;95.62
36834;BME280;48003;52.084;5.224;2023-02-18T02:38:54;102087.0;;;12.01;93.86
36834;BME280;48003;52.084;5.224;2023-02-18T02:40:38;102081.0;;;11.93;94.09
36834;BME280;48003;52.084;5.224;2023-02-18T02:42:25;102072.0;;;11.96;94.1
36834;BME280;48003;52.084;5.224;2023-02-18T02:44:15;102068.0;;;11.64;95.25
36834;BME280;48003;52.084;5.224;2023-02-18T02:47:44;102060.0;;;11.71;95.82
36834;BME280;48003;52.084;5.224;2023-02-18T02:49:35;102059.0;;;11.66;95.4
36834;BME280;48003;52.084;5.224;2023-02-18T02:51:17;102049.0;;;11.73;96.14
36834;BME280;48003;52.084;5.224;2023-02-18T02:53:02;102049.0;;;11.78;96.33
36834;BME280;48003;52.084;5.224;2023-02-18T02:54:41;102042.0;;;12.11;94.07
36834;BME280;48003;52.084;5.224;2023-02-18T02:57:57;102055.0;;;11.68;96.19
36834;BME280;48003;52.084;5.224;2023-02-18T02:59:35;102036.0;;;11.82;96.35
36834;BME280;48003;52.084;5.224;2023-02-18T03:01:21;102034.0;;;11.71;96.49
36834;BME280;48003;52.084;5.224;2023-02-18T03:03:16;102025.0;;;12.0;95.73
36834;BME280;48003;52.084;5.224;2023-02-18T03:05:24;102026.0;;;11.74;95.98
36834;BME280;48003;52.084;5.224;2023-02-18T03:07:27;102022.0;;;11.8;96.36
36834;BME280;48003;52.084;5.224;2023-02-18T03:09:14;102017.0;;;11.65;98.16
36834;BME280;48003;52.084;5.224;2023-02-18T03:12:46;102026.0;;;11.98;96.09
36834;BME280;48003;52.084;5.224;2023-02-18T03:14:27;102020.0;;;11.86;96.6
36834;BME280;48003;52.084;5.224;2023-02-18T03:16:12;102026.0;;;11.72;97.69
36834;BME280;48003;52.084;5.224;2023-02-18T03:17:59;102030.0;;;11.81;97.67
36834;BME280;48003;52.084;5.224;2023-02-18T03:19:40;102021.0;;;11.8;96.74
36834;BME280;48003;52.084;5.224;2023-02-18T03:23:09;102026.0;;;11.77;97.03
36834;BME280;48003;52.084;5.224;2023-02-18T03:24:55;102017.0;;;11.86;96.26
36834;BME280;48003;52.084;5.224;2023-02-18T03:26:35;102008.0;;;11.92;96.38
36834;BME280;48003;52.084;5.224;2023-02-18T03:28:16;102005.0;;;11.82;95.89
36834;BME280;48003;52.084;5.224;2023-02-18T03:31:38;101995.0;;;12.03;95.6
36834;BME280;48003;52.084;5.224;2023-02-18T03:33:22;101991.0;;;11.99;95.56
36834;BME280;48003;52.084;5.224;2023-02-18T03:35:14;101992.0;;;11.81;95.78
36834;BME280;48003;52.084;5.224;2023-02-18T03:36:52;101984.0;;;11.77;96.14
36834;BME280;48003;52.084;5.224;2023-02-18T03:38:34;101983.0;;;11.89;94.86
36834;BME280;48003;52.084;5.224;2023-02-18T03:41:50;101970.0;;;11.89;95.44
36834;BME280;48003;52.084;5.224;2023-02-18T03:43:28;101963.0;;;12.06;94.5
36834;BME280;48003;52.084;5.224;2023-02-18T03:45:04;101957.0;;;12.12;94.24
36834;BME280;48003;52.084;5.224;2023-02-18T03:48:20;101957.0;;;11.91;95.27
36834;BME280;48003;52.084;5.224;2023-02-18T03:49:56;101942.0;;;12.11;94.38
36834;BME280;48003;52.084;5.224;2023-02-18T03:51:32;101953.0;;;11.9;95.92
36834;BME280;48003;52.084;5.224;2023-02-18T03:53:08;101944.0;;;12.12;94.99
36834;BME280;48003;52.084;5.224;2023-02-18T03:56:21;101944.0;;;12.23;94.22
36834;BME280;48003;52.084;5.224;2023-02-18T03:57:57;101941.0;;;12.07;95.21
36834;BME280;48003;52.084;5.224;2023-02-18T03:59:34;101935.0;;;12.1;95.19
36834;BME280;48003;52.084;5.224;2023-02-18T04:02:46;101942.0;;;12.13;94.98
36834;BME280;48003;52.084;5.224;2023-02-18T04:04:22;101931.0;;;12.21;94.91
36834;BME280;48003;52.084;5.224;2023-02-18T04:05:58;101931.0;;;11.86;97.21
36834;BME280;48003;52.084;5.224;2023-02-18T04:09:12;101927.0;;;11.99;97.05
36834;BME280;48003;52.084;5.224;2023-02-18T04:10:49;101922.0;;;12.13;96.1
36834;BME280;48003;52.084;5.224;2023-02-18T04:12:26;101915.0;;;11.93;96.5
36834;BME280;48003;52.084;5.224;2023-02-18T04:14:02;101922.0;;;11.89;97.94
36834;BME280;48003;52.084;5.224;2023-02-18T04:17:15;101928.0;;;11.91;98.66
36834;BME280;48003;52.084;5.224;2023-02-18T04:18:51;101921.0;;;11.84;98.04
36834;BME280;48003;52.084;5.224;2023-02-18T04:20:27;101919.0;;;12.07;96.95
36834;BME280;48003;52.084;5.224;2023-02-18T04:23:40;101916.0;;;12.07;96.87
36834;BME280;48003;52.084;5.224;2023-02-18T04:25:17;101910.0;;;12.34;95.96
36834;BME280;48003;52.084;5.224;2023-02-18T04:26:54;101925.0;;;12.14;95.58
36834;BME280;48003;52.084;5.224;2023-02-18T04:30:07;101907.0;;;11.89;97.2
36834;BME280;48003;52.084;5.224;2023-02-18T04:31:43;101906.0;;;11.96;97.01
36834;BME280;48003;52.084;5.224;2023-02-18T04:33:19;101905.0;;;11.87;97.37
36834;BME280;48003;52.084;5.224;2023-02-18T04:34:55;101901.0;;;11.8;98.33
36834;BME280;48003;52.084;5.224;2023-02-18T04:38:09;101899.0;;;12.0;97.62
36834;BME280;48003;52.084;5.224;2023-02-18T04:39:46;101900.0;;;11.97;96.8
36834;BME280;48003;52.084;5.224;2023-02-18T04:41:22;101895.0;;;11.94;97.56
36834;BME280;48003;52.084;5.224;2023-02-18T04:44:36;101901.0;;;11.73;97.98
36834;BME280;48003;52.084;5.224;2023-02-18T04:46:12;101896.0;;;11.81;98.63
36834;BME280;48003;52.084;5.224;2023-02-18T04:47:48;101898.0;;;11.77;98.31
36834;BME280;48003;52.084;5.224;2023-02-18T04:51:01;101882.0;;;11.75;98.75
36834;BME280;48003;52.084;5.224;2023-02-18T04:52:38;101883.0;;;11.9;98.09
36834;BME280;48003;52.084;5.224;2023-02-18T04:54:15;101875.0;;;11.93;97.65
36834;BME280;48003;52.084;5.224;2023-02-18T04:55:52;101872.0;;;11.95;97.04
36834;BME280;48003;52.084;5.224;2023-02-18T04:59:05;101862.0;;;12.03;96.34
36834;BME280;48003;52.084;5.224;2023-02-18T05:00:41;101861.0;;;12.05;95.29
36834;BME280;48003;52.084;5.224;2023-02-18T05:02:17;101862.0;;;11.98;96.75
36834;BME280;48003;52.084;5.224;2023-02-18T05:05:30;101859.0;;;12.1;95.88
36834;BME280;48003;52.084;5.224;2023-02-18T05:07:06;101859.0;;;12.0;96.37
36834;BME280;48003;52.084;5.224;2023-02-18T05:08:42;101871.0;;;12.0;96.66
36834;BME280;48003;52.084;5.224;2023-02-18T05:11:54;101865.0;;;11.55;98.59
36834;BME280;48003;52.084;5.224;2023-02-18T05:13:30;101871.0;;;11.61;99.19
36834;BME280;48003;52.084;5.224;2023-02-18T05:15:08;101870.0;;;11.78;98.66
36834;BME280;48003;52.084;5.224;2023-02-18T05:16:44;101873.0;;;11.79;98.46
36834;BME280;48003;52.084;5.224;2023-02-18T05:19:57;101868.0;;;11.52;99.38
36834;BME280;48003;52.084;5.224;2023-02-18T05:21:33;101880.0;;;11.61;99.76
36834;BME280;48003;52.084;5.224;2023-02-18T05:23:09;101877.0;;;11.75;98.65
36834;BME280;48003;52.084;5.224;2023-02-18T05:26:21;101861.0;;;11.56;100.0
36834;BME280;48003;52.084;5.224;2023-02-18T05:27:58;101851.0;;;11.49;100.0
36834;BME280;48003;52.084;5.224;2023-02-18T05:29:34;101858.0;;;11.59;99.87
36834;BME280;48003;52.084;5.224;2023-02-18T05:32:47;101856.0;;;11.3;100.0
36834;BME280;48003;52.084;5.224;2023-02-18T05:34:23;101869.0;;;11.32;100.0
36834;BME280;48003;52.084;5.224;2023-02-18T05:35:59;101841.0;;;11.38;100.0
36834;BME280;48003;52.084;5.224;2023-02-18T05:37:35;101852.0;;;11.68;100.0
36834;BME280;48003;52.084;5.224;2023-02-18T05:40:47;101841.0;;;11.8;99.36
36834;BME280;48003;52.084;5.224;2023-02-18T05:42:23;101834.0;;;11.58;99.95
36834;BME280;48003;52.084;5.224;2023-02-18T05:44:32;101835.0;;;11.68;98.99
36834;BME280;48003;52.084;5.224;2023-02-18T05:46:09;101833.0;;;11.63;99.02
36834;BME280;48003;52.084;5.224;2023-02-18T05:49:21;101834.0;;;11.57;99.96
36834;BME280;48003;52.084;5.224;2023-02-18T05:50:57;101831.0;;;11.68;99.71
36834;BME280;48003;52.084;5.224;2023-02-18T05:52:34;101840.0;;;11.33;100.0
36834;BME280;48003;52.084;5.224;2023-02-18T05:55:46;101843.0;;;11.66;99.52
36834;BME280;48003;52.084;5.224;2023-02-18T05:57:22;101837.0;;;11.52;99.53
36834;BME280;48003;52.084;5.224;2023-02-18T05:59:00;101832.0;;;11.66;99.74
36834;BME280;48003;52.084;5.224;2023-02-18T06:00:36;101821.0;;;11.71;99.75
36834;BME280;48003;52.084;5.224;2023-02-18T06:03:48;101812.0;;;11.72;99.51
36834;BME280;48003;52.084;5.224;2023-02-18T06:05:24;101824.0;;;11.72;98.51
36834;BME280;48003;52.084;5.224;2023-02-18T06:07:00;101826.0;;;11.42;100.0
36834;BME280;48003;52.084;5.224;2023-02-18T06:10:12;101822.0;;;11.45;100.0
36834;BME280;48003;52.084;5.224;2023-02-18T06:11:49;101823.0;;;11.68;99.98
36834;BME280;48003;52.084;5.224;2023-02-18T06:13:25;101823.0;;;11.86;98.93
36834;BME280;48003;52.084;5.224;2023-02-18T06:16:37;101825.0;;;11.68;98.7
36834;BME280;48003;52.084;5.224;2023-02-18T06:18:13;101824.0;;;11.8;98.66
36834;BME280;48003;52.084;5.224;2023-02-18T06:19:49;101820.0;;;11.67;98.74
36834;BME280;48003;52.084;5.224;2023-02-18T06:23:01;101830.0;;;11.65;99.94
36834;BME280;48003;52.084;5.224;2023-02-18T06:24:38;101838.0;;;11.71;98.88
36834;BME280;48003;52.084;5.224;2023-02-18T06:26:14;101827.0;;;11.75;99.42
36834;BME280;48003;52.084;5.224;2023-02-18T06:27:50;101837.0;;;11.78;98.26
36834;BME280;48003;52.084;5.224;2023-02-18T06:31:05;101826.0;;;11.96;98.2
36834;BME280;48003;52.084;5.224;2023-02-18T06:32:42;101835.0;;;11.89;98.5
36834;BME280;48003;52.084;5.224;2023-02-18T06:34:18;101830.0;;;11.85;98.25
36834;BME280;48003;52.084;5.224;2023-02-18T06:37:33;101832.0;;;11.87;98.22
36834;BME280;48003;52.084;5.224;2023-02-18T06:39:09;101828.0;;;11.88;98.61
36834;BME280;48003;52.084;5.224;2023-02-18T06:40:45;101832.0;;;11.88;98.49
36834;BME280;48003;52.084;5.224;2023-02-18T06:43:59;101830.0;;;11.82;98.95
36834;BME280;48003;52.084;5.224;2023-02-18T06:45:37;101834.0;;;11.86;98.06
36834;BME280;48003;52.084;5.224;2023-02-18T06:47:13;101830.0;;;11.67;98.65
36834;BME280;48003;52.084;5.224;2023-02-18T06:48:50;101839.0;;;11.9;97.83
36834;BME280;48003;52.084;5.224;2023-02-18T06:52:03;101831.0;;;12.06;96.99
36834;BME280;48003;52.084;5.224;2023-02-18T06:53:40;101830.0;;;11.99;96.63
36834;BME280;48003;52.084;5.224;2023-02-18T06:55:16;101822.0;;;11.89;97.93
36834;BME280;48003;52.084;5.224;2023-02-18T06:58:28;101832.0;;;11.62;99.02
36834;BME280;48003;52.084;5.224;2023-02-18T07:00:07;101832.0;;;12.0;97.26
36834;BME280;48003;52.084;5.224;2023-02-18T07:01:43;101828.0;;;11.76;97.33
36834;BME280;48003;52.084;5.224;2023-02-18T07:04:55;101824.0;;;11.95;96.58
36834;BME280;48003;52.084;5.224;2023-02-18T07:06:31;101816.0;;;11.97;96.33
36834;BME280;48003;52.084;5.224;2023-02-18T07:08:07;101820.0;;;12.01;95.54
36834;BME280;48003;52.084;5.224;2023-02-18T07:09:44;101827.0;;;11.75;96.79
36834;BME280;48003;52.084;5.224;2023-02-18T07:12:57;101822.0;;;12.06;95.79
36834;BME280;48003;52.084;5.224;2023-02-18T07:14:34;101830.0;;;11.69;97.15
36834;BME280;48003;52.084;5.224;2023-02-18T07:16:10;101832.0;;;11.95;95.86
36834;BME280;48003;52.084;5.224;2023-02-18T07:19:22;101828.0;;;11.75;95.95
36834;BME280;48003;52.084;5.224;2023-02-18T07:20:58;101831.0;;;11.47;98.07
36834;BME280;48003;52.084;5.224;2023-02-18T07:22:34;101823.0;;;11.75;97.62
36834;BME280;48003;52.084;5.224;2023-02-18T07:25:47;101830.0;;;11.65;96.78
36834;BME280;48003;52.084;5.224;2023-02-18T07:27:23;101833.0;;;11.9;96.6
36834;BME280;48003;52.084;5.224;2023-02-18T07:29:00;101828.0;;;11.68;97.33
36834;BME280;48003;52.084;5.224;2023-02-18T07:30:37;101820.0;;;11.5;96.99
36834;BME280;48003;52.084;5.224;2023-02-18T07:33:52;101821.0;;;11.9;95.91
36834;BME280;48003;52.084;5.224;2023-02-18T07:35:29;101832.0;;;11.71;95.47
36834;BME280;48003;52.084;5.224;2023-02-18T07:37:08;101832.0;;;11.7;95.33
36834;BME280;48003;52.084;5.224;2023-02-18T07:40:21;101818.0;;;11.56;95.93
36834;BME280;48003;52.084;5.224;2023-02-18T07:41:57;101823.0;;;11.57;95.39
36834;BME280;48003;52.084;5.224;2023-02-18T07:43:33;101822.0;;;11.45;95.45
36834;BME280;48003;52.084;5.224;2023-02-18T07:46:46;101814.0;;;11.54;95.21
36834;BME280;48003;52.084;5.224;2023-02-18T07:48:22;101818.0;;;11.52;95.55
36834;BME280;48003;52.084;5.224;2023-02-18T07:49:58;101824.0;;;11.42;95.16
36834;BME280;48003;52.084;5.224;2023-02-18T07:51:35;101823.0;;;11.32;95.34
36834;BME280;48003;52.084;5.224;2023-02-18T07:54:50;101817.0;;;11.56;93.74
36834;BME280;48003;52.084;5.224;2023-02-18T07:56:26;101820.0;;;11.57;93.26
36834;BME280;48003;52.084;5.224;2023-02-18T07:58:02;101827.0;;;11.47;92.41
36834;BME280;48003;52.084;5.224;2023-02-18T08:01:15;101822.0;;;11.44;93.02
36834;BME280;48003;52.084;5.224;2023-02-18T08:02:51;101830.0;;;11.39;92.2
36834;BME280;48003;52.084;5.224;2023-02-18T08:04:28;101837.0;;;11.58;92.36
36834;BME280;48003;52.084;5.224;2023-02-18T08:07:41;101841.0;;;11.62;91.85
36834;BME280;48003;52.084;5.224;2023-02-18T08:09:17;101857.0;;;11.61;92.34
36834;BME280;48003;52.084;5.224;2023-02-18T08:10:56;101848.0;;;11.55;92.92
36834;BME280;48003;52.084;5.224;2023-02-18T08:12:34;101844.0;;;11.38;93.12
36834;BME280;48003;52.084;5.224;2023-02-18T08:15:47;101842.0;;;11.35;93.0
36834;BME280;48003;52.084;5.224;2023-02-18T08:17:23;101845.0;;;11.18;93.54
36834;BME280;48003;52.084;5.224;2023-02-18T08:19:01;101832.0;;;11.58;92.53
36834;BME280;48003;52.084;5.224;2023-02-18T08:22:15;101845.0;;;11.69;91.95
36834;BME280;48003;52.084;5.224;2023-02-18T08:23:51;101852.0;;;11.44;92.05
36834;BME280;48003;52.084;5.224;2023-02-18T08:25:28;101849.0;;;11.58;90.99
36834;BME280;48003;52.084;5.224;2023-02-18T08:27:05;101847.0;;;11.77;90.06
36834;BME280;48003;52.084;5.224;2023-02-18T08:30:18;101841.0;;;11.68;90.75
36834;BME280;48003;52.084;5.224;2023-02-18T08:31:56;101838.0;;;11.53;90.45
36834;BME280;48003;52.084;5.224;2023-02-18T08:33:32;101845.0;;;11.41;91.79
36834;BME280;48003;52.084;5.224;2023-02-18T08:36:46;101842.0;;;11.68;90.59
36834;BME280;48003;52.084;5.224;2023-02-18T08:38:23;101846.0;;;11.54;91.26
36834;BME280;48003;52.084;5.224;2023-02-18T08:40:00;101850.0;;;11.58;91.56
36834;BME280;48003;52.084;5.224;2023-02-18T08:43:14;101843.0;;;11.15;92.35
36834;BME280;48003;52.084;5.224;2023-02-18T08:44:51;101848.0;;;11.22;92.3
36834;BME280;48003;52.084;5.224;2023-02-18T08:46:27;101839.0;;;11.38;91.56
36834;BME280;48003;52.084;5.224;2023-02-18T08:48:03;101846.0;;;11.39;90.89
36834;BME280;48003;52.084;5.224;2023-02-18T08:51:19;101841.0;;;11.47;90.97
36834;BME280;48003;52.084;5.224;2023-02-18T08:52:59;101840.0;;;11.45;90.48
36834;BME280;48003;52.084;5.224;2023-02-18T08:54:37;101851.0;;;11.23;91.07
36834;BME280;48003;52.084;5.224;2023-02-18T08:57:51;101846.0;;;11.37;90.46
36834;BME280;48003;52.084;5.224;2023-02-18T08:59:27;101852.0;;;11.11;91.9
36834;BME280;48003;52.084;5.224;2023-02-18T09:01:05;101855.0;;;11.26;91.42
36834;BME280;48003;52.084;5.224;2023-02-18T09:02:42;101855.0;;;11.32;91.57
36834;BME280;48003;52.084;5.224;2023-02-18T09:05:58;101864.0;;;11.3;90.94
36834;BME280;48003;52.084;5.224;2023-02-18T09:07:35;101852.0;;;11.09;92.04
36834;BME280;48003;52.084;5.224;2023-02-18T09:09:12;101866.0;;;11.25;91.14
36834;BME280;48003;52.084;5.224;2023-02-18T09:12:24;101857.0;;;11.12;91.85
36834;BME280;48003;52.084;5.224;2023-02-18T09:14:02;101858.0;;;11.36;90.95
36834;BME280;48003;52.084;5.224;2023-02-18T09:15:38;101867.0;;;11.26;91.56
36834;BME280;48003;52.084;5.224;2023-02-18T09:17:14;101857.0;;;11.58;89.98
36834;BME280;48003;52.084;5.224;2023-02-18T09:20:27;101866.0;;;11.38;89.84
36834;BME280;48003;52.084;5.224;2023-02-18T09:22:02;101859.0;;;11.51;89.29
36834;BME280;48003;52.084;5.224;2023-02-18T09:23:39;101867.0;;;11.68;88.98
36834;BME280;48003;52.084;5.224;2023-02-18T09:26:51;101865.0;;;11.95;87.78
36834;BME280;48003;52.084;5.224;2023-02-18T09:28:27;101868.0;;;11.91;87.07
36834;BME280;48003;52.084;5.224;2023-02-18T09:30:05;101861.0;;;11.86;87.18
36834;BME280;48003;52.084;5.224;2023-02-18T09:33:19;101847.0;;;11.68;88.0
36834;BME280;48003;52.084;5.224;2023-02-18T09:34:55;101865.0;;;11.56;88.32
36834;BME280;48003;52.084;5.224;2023-02-18T09:36:31;101866.0;;;11.23;90.14
36834;BME280;48003;52.084;5.224;2023-02-18T09:38:10;101864.0;;;11.37;88.97
36834;BME280;48003;52.084;5.224;2023-02-18T09:41:30;101862.0;;;11.52;88.3
36834;BME280;48003;52.084;5.224;2023-02-18T09:43:25;101871.0;;;11.65;87.72
36834;BME280;48003;52.084;5.224;2023-02-18T09:45:10;101877.0;;;11.7;87.68
36834;BME280;48003;52.084;5.224;2023-02-18T09:46:51;101884.0;;;11.95;86.5
36834;BME280;48003;52.084;5.224;2023-02-18T09:50:16;101887.0;;;11.94;86.45
36834;BME280;48003;52.084;5.224;2023-02-18T09:52:02;101880.0;;;11.97;86.15
36834;BME280;48003;52.084;5.224;2023-02-18T09:53:42;101882.0;;;11.93;85.73
36834;BME280;48003;52.084;5.224;2023-02-18T09:55:22;101883.0;;;12.11;85.01
36834;BME280;48003;52.084;5.224;2023-02-18T09:57:00;101883.0;;;12.12;84.98
36834;BME280;48003;52.084;5.224;2023-02-18T10:00:20;101880.0;;;11.88;85.52
36834;BME280;48003;52.084;5.224;2023-02-18T10:01:59;101885.0;;;11.96;86.0
36834;BME280;48003;52.084;5.224;2023-02-18T10:03:36;101878.0;;;11.82;86.05
36834;BME280;48003;52.084;5.224;2023-02-18T10:06:51;101883.0;;;11.82;87.1
36834;BME280;48003;52.084;5.224;2023-02-18T10:08:32;101899.0;;;11.95;85.3
36834;BME280;48003;52.084;5.224;2023-02-18T10:11:59;101887.0;;;11.9;85.37
36834;BME280;48003;52.084;5.224;2023-02-18T10:15:20;101891.0;;;11.9;85.44
36834;BME280;48003;52.084;5.224;2023-02-18T10:16:59;101886.0;;;11.94;85.65
36834;BME280;48003;52.084;5.224;2023-02-18T10:18:40;101887.0;;;11.86;86.27
36834;BME280;48003;52.084;5.224;2023-02-18T10:20:21;101893.0;;;11.86;86.38
36834;BME280;48003;52.084;5.224;2023-02-18T10:23:42;101915.0;;;11.88;86.15
36834;BME280;48003;52.084;5.224;2023-02-18T10:25:30;101903.0;;;12.09;85.04
36834;BME280;48003;52.084;5.224;2023-02-18T10:27:20;101917.0;;;12.31;84.06
36834;BME280;48003;52.084;5.224;2023-02-18T10:28:59;101916.0;;;12.12;84.74
36834;BME280;48003;52.084;5.224;2023-02-18T10:30:39;101916.0;;;12.26;84.33
36834;BME280;48003;52.084;5.224;2023-02-18T10:34:04;101912.0;;;12.34;84.07
36834;BME280;48003;52.084;5.224;2023-02-18T10:37:42;101912.0;;;12.4;83.67
36834;BME280;48003;52.084;5.224;2023-02-18T10:39:37;101903.0;;;12.39;83.01
36834;BME280;48003;52.084;5.224;2023-02-18T10:41:27;101913.0;;;12.26;83.76
36834;BME280;48003;52.084;5.224;2023-02-18T10:43:16;101907.0;;;12.38;83.43
36834;BME280;48003;52.084;5.224;2023-02-18T10:46:50;101922.0;;;12.09;85.39
36834;BME280;48003;52.084;5.224;2023-02-18T10:48:49;101919.0;;;12.17;85.61
36834;BME280;48003;52.084;5.224;2023-02-18T10:50:36;101932.0;;;12.46;83.78
36834;BME280;48003;52.084;5.224;2023-02-18T10:52:16;101909.0;;;12.36;84.25
36834;BME280;48003;52.084;5.224;2023-02-18T10:53:54;101922.0;;;12.52;83.67
36834;BME280;48003;52.084;5.224;2023-02-18T10:57:17;101914.0;;;12.48;83.72
36834;BME280;48003;52.084;5.224;2023-02-18T10:59:00;101909.0;;;12.35;84.61
36834;BME280;48003;52.084;5.224;2023-02-18T11:00:40;101914.0;;;12.63;83.36
36834;BME280;48003;52.084;5.224;2023-02-18T11:02:17;101911.0;;;12.71;82.82
36834;BME280;48003;52.084;5.224;2023-02-18T11:05:43;101911.0;;;12.56;83.67
36834;BME280;48003;52.084;5.224;2023-02-18T11:07:22;101928.0;;;12.72;82.66
36834;BME280;48003;52.084;5.224;2023-02-18T11:09:01;101913.0;;;12.58;84.66
36834;BME280;48003;52.084;5.224;2023-02-18T11:10:40;101925.0;;;12.79;82.72
36834;BME280;48003;52.084;5.224;2023-02-18T11:12:21;101907.0;;;12.96;82.38
36834;BME280;48003;52.084;5.224;2023-02-18T11:15:53;101916.0;;;12.79;83.12
36834;BME280;48003;52.084;5.224;2023-02-18T11:17:31;101905.0;;;13.03;82.03